Marsh, Pennsylvania
Current Conditions -  °F | °C
As of 12:55 PM on Thursday 18 Dec 2014 (Local Time) from KMQS Reporting Station
Overcast Overcast  
Wind Chill: -2°   Ceiling: 3500
Heat Index:   Visibility: 10mi
Dew Point: -3°   Wind: 15mph
Humidity: 65%   Direction: 300°WNW
Pressure: 30.04"   Gusts: 21mph
Location:  40.1578°N, 75.7894°W
Report Text: KMQS 181755Z AUTO 30013G18KT 10SM OVC035 03/M03 A3004 RMK AO2
Loading
Personal Weather Stations






























Interactive Weather Map New forecast layout! Learn more

10-Day Weather Forecast

Advertisements
Track Severe Weather on mobile